Time;durP1;ratioP1;P1;durP2;ratioP2;P2;SDS_P1;SDS_P2;PMS_P1;PMS_P2;Temp;Humidity;BMP_temperature;BMP_pressure;BME280_temperature;BME280_humidity;BME280_pressure;Samples;Min_cycle;Max_cycle;Signal;HPM_P1;HPM_P2
2022/07/11 00:03:06;;;;;;;;;;;;;;;;;;10462717;28;19929;-64
2022/07/11 00:08:08;;;;;;;;;;;;;;;;;;10466261;28;19925;-64
2022/07/11 00:13:10;;;;;;;;;;;;;;;;;;10503711;28;19924;-64
2022/07/11 00:18:12;;;;;;;;;;;;;;;;;;10497661;28;19931;-64
2022/07/11 00:23:14;;;;;;;;;;;;;;;;;;10461251;28;20363;-64
2022/07/11 00:28:16;;;;;;;;;;;;;;;;;;10465720;28;19929;-64
2022/07/11 00:33:18;;;;;;;;;;;;;;;;;;10502954;28;19924;-64
2022/07/11 00:38:20;;;;;;;;;;;;;;;;;;10496966;28;19932;-64
2022/07/11 00:43:22;;;;;;;;;;;;;;;;;;10460544;28;20294;-64
2022/07/11 00:48:25;;;;;;;;;;;;;;;;;;10466354;28;19925;-64
2022/07/11 00:53:27;;;;;;;;;;;;;;;;;;10460364;28;19929;-64
2022/07/11 00:58:29;;;;;;;;;;;;;;;;;;10465919;28;19932;-64
2022/07/11 01:03:31;;;;;;;;;;;;;;;;;;10500906;28;19924;-64
2022/07/11 01:08:33;;;;;;;;;;;;;;;;;;10494304;28;19932;-64
2022/07/11 01:13:36;;;;;;;;;;;;;;;;;;10459913;28;19925;-64
2022/07/11 01:18:38;;;;;;;;;;;;;;;;;;10469217;28;19924;-64
2022/07/11 01:23:40;;;;;;;;;;;;;;;;;;10500827;28;19924;-64
2022/07/11 01:28:42;;;;;;;;;;;;;;;;;;10488394;28;19925;-64
2022/07/11 01:33:44;;;;;;;;;;;;;;;;;;10458452;28;19931;-64
2022/07/11 01:38:47;;;;;;;;;;;;;;;;;;10469492;28;19928;-64
2022/07/11 01:43:49;;;;;;;;;;;;;;;;;;10500178;28;19931;-64
2022/07/11 01:48:51;;;;;;;;;;;;;;;;;;10487395;28;19931;-64
2022/07/11 01:53:55;;;;;;;;;;;;;;;;;;10458503;28;19925;-64
2022/07/11 01:58:57;;;;;;;;;;;;;;;;;;10468830;28;20395;-64
2022/07/11 02:03:59;;;;;;;;;;;;;;;;;;10499460;28;19931;-64
2022/07/11 02:09:01;;;;;;;;;;;;;;;;;;10486708;28;19928;-64
2022/07/11 02:14:03;;;;;;;;;;;;;;;;;;10457141;28;19931;-64
2022/07/11 02:19:06;;;;;;;;;;;;;;;;;;10488067;28;20368;-64
2022/07/11 02:24:08;;;;;;;;;;;;;;;;;;10498336;28;19936;-64
2022/07/11 02:29:10;;;;;;;;;;;;;;;;;;10481882;28;19932;-64
2022/07/11 02:34:12;;;;;;;;;;;;;;;;;;10457313;28;19932;-65
2022/07/11 02:39:14;;;;;;;;;;;;;;;;;;10472743;28;19932;-64
2022/07/11 02:44:17;;;;;;;;;;;;;;;;;;10497667;28;19948;-64
2022/07/11 02:49:19;;;;;;;;;;;;;;;;;;10481168;28;19925;-64
2022/07/11 02:54:21;;;;;;;;;;;;;;;;;;10456269;28;20287;-64
2022/07/11 02:59:24;;;;;;;;;;;;;;;;;;10473162;28;20364;-64
2022/07/11 03:04:26;;;;;;;;;;;;;;;;;;10505099;28;20306;-64
2022/07/11 03:09:28;;;;;;;;;;;;;;;;;;10488257;28;19925;-63
2022/07/11 03:14:30;;;;;;;;;;;;;;;;;;10464047;28;19925;-64
2022/07/11 03:19:32;;;;;;;;;;;;;;;;;;10481579;28;20359;-63
2022/07/11 03:24:35;;;;;;;;;;;;;;;;;;10504730;28;20371;-63
2022/07/11 03:29:37;;;;;;;;;;;;;;;;;;10486443;28;19932;-63
2022/07/11 03:34:40;;;;;;;;;;;;;;;;;;10463854;28;19924;-64
2022/07/11 03:39:42;;;;;;;;;;;;;;;;;;10481799;28;19931;-63
2022/07/11 03:44:44;;;;;;;;;;;;;;;;;;10503890;28;20394;-63
2022/07/11 03:49:46;;;;;;;;;;;;;;;;;;10484876;28;19933;-63
2022/07/11 03:54:48;;;;;;;;;;;;;;;;;;10463053;28;19932;-63
2022/07/11 03:59:50;;;;;;;;;;;;;;;;;;10481563;28;20311;-63
2022/07/11 04:04:52;;;;;;;;;;;;;;;;;;10502645;28;19925;-63
2022/07/11 04:09:54;;;;;;;;;;;;;;;;;;10483518;28;19925;-63
2022/07/11 04:14:56;;;;;;;;;;;;;;;;;;10461858;28;19939;-63
2022/07/11 04:19:58;;;;;;;;;;;;;;;;;;10482216;28;19924;-63
2022/07/11 04:25:00;;;;;;;;;;;;;;;;;;10503406;28;19931;-63
2022/07/11 04:30:02;;;;;;;;;;;;;;;;;;10481883;28;19925;-63
2022/07/11 04:35:04;;;;;;;;;;;;;;;;;;10461730;28;19924;-63
2022/07/11 04:40:07;;;;;;;;;;;;;;;;;;10482310;28;20291;-63
2022/07/11 04:45:14;;;;;;;;;;;;;;;;;;10501676;28;20347;-63
2022/07/11 04:50:16;;;;;;;;;;;;;;;;;;10479192;28;19936;-63
2022/07/11 04:55:18;;;;;;;;;;;;;;;;;;10460045;28;19936;-63
2022/07/11 05:00:20;;;;;;;;;;;;;;;;;;10481944;28;19924;-62
2022/07/11 05:05:23;;;;;;;;;;;;;;;;;;10501420;28;19925;-62
2022/07/11 05:10:25;;;;;;;;;;;;;;;;;;10477529;28;20363;-62
2022/07/11 05:15:28;;;;;;;;;;;;;;;;;;10493615;28;20374;-62
2022/07/11 05:20:30;;;;;;;;;;;;;;;;;;10500960;28;19925;-62
2022/07/11 05:25:32;;;;;;;;;;;;;;;;;;10465721;28;19925;-62
2022/07/11 05:30:34;;;;;;;;;;;;;;;;;;10459368;28;19925;-62
2022/07/11 05:35:36;;;;;;;;;;;;;;;;;;10493455;28;19924;-62
2022/07/11 05:40:38;;;;;;;;;;;;;;;;;;10499866;28;19925;-62
2022/07/11 05:45:40;;;;;;;;;;;;;;;;;;10462287;28;19924;-62
2022/07/11 05:50:42;;;;;;;;;;;;;;;;;;10457915;28;19925;-62
2022/07/11 05:55:44;;;;;;;;;;;;;;;;;;10459532;28;19932;-63
2022/07/11 06:00:46;;;;;;;;;;;;;;;;;;10457570;28;19929;-62
2022/07/11 06:05:49;;;;;;;;;;;;;;;;;;10498460;28;19924;-62
2022/07/11 06:10:51;;;;;;;;;;;;;;;;;;10498688;28;19931;-62
2022/07/11 06:15:53;;;;;;;;;;;;;;;;;;10496843;28;20291;-62
2022/07/11 06:20:56;;;;;;;;;;;;;;;;;;10497509;28;19932;-63
2022/07/11 06:25:58;;;;;;;;;;;;;;;;;;10457522;28;19925;-63
2022/07/11 06:31:00;;;;;;;;;;;;;;;;;;10460310;28;19925;-62
2022/07/11 06:36:02;;;;;;;;;;;;;;;;;;10456482;28;20011;-63
2022/07/11 06:41:04;;;;;;;;;;;;;;;;;;10458285;28;19931;-62
2022/07/11 06:46:06;;;;;;;;;;;;;;;;;;10456431;28;20319;-62
2022/07/11 06:51:09;;;;;;;;;;;;;;;;;;10472319;28;19931;-62
2022/07/11 06:56:11;;;;;;;;;;;;;;;;;;10457341;28;19932;-62
2022/07/11 07:01:13;;;;;;;;;;;;;;;;;;10456057;28;19932;-62
2022/07/11 07:06:15;;;;;;;;;;;;;;;;;;10456782;28;19929;-62
2022/07/11 07:11:19;;;;;;;;;;;;;;;;;;10456016;28;20359;-62
2022/07/11 07:16:21;;;;;;;;;;;;;;;;;;10492258;22;19928;-69
2022/07/11 07:21:23;;;;;;;;;;;;;;;;;;10496983;28;19947;-69
2022/07/11 07:26:25;;;;;;;;;;;;;;;;;;10461077;28;19931;-69
2022/07/11 07:31:27;;;;;;;;;;;;;;;;;;10457342;28;19929;-69
2022/07/11 07:36:29;;;;;;;;;;;;;;;;;;10456047;28;19963;-70
2022/07/11 07:41:31;;;;;;;;;;;;;;;;;;10480596;28;19924;-69
2022/07/11 07:46:33;;;;;;;;;;;;;;;;;;10497057;28;19924;-69
2022/07/11 07:51:36;;;;;;;;;;;;;;;;;;10498533;28;20315;-69
2022/07/11 07:56:38;;;;;;;;;;;;;;;;;;10462256;28;20272;-69
2022/07/11 08:01:42;;;;;;;;;;;;;;;;;;10462350;28;19932;-69
2022/07/11 08:06:44;;;;;;;;;;;;;;;;;;10462669;28;19960;-69
2022/07/11 08:11:46;;;;;;;;;;;;;;;;;;10461865;28;19925;-70
2022/07/11 08:16:48;;;;;;;;;;;;;;;;;;10461446;28;19948;-70
2022/07/11 08:21:50;;;;;;;;;;;;;;;;;;10461443;28;20370;-69
2022/07/11 08:26:52;;;;;;;;;;;;;;;;;;10443615;28;20387;-69
2022/07/11 08:31:56;;;;;;;;;;;;;;;;;;10461693;28;19964;-69
2022/07/11 08:36:58;;;;;;;;;;;;;;;;;;10443133;28;19925;-69
2022/07/11 08:42:00;;;;;;;;;;;;;;;;;;10460649;28;20367;-69
2022/07/11 08:47:03;;;;;;;;;;;;;;;;;;10461041;28;19925;-69
2022/07/11 08:52:05;;;;;;;;;;;;;;;;;;10460884;28;19925;-69
2022/07/11 08:57:07;;;;;;;;;;;;;;;;;;10460126;28;19929;-69
2022/07/11 09:02:10;;;;;;;;;;;;;;;;;;10442228;28;19926;-69
2022/07/11 09:07:12;;;;;;;;;;;;;;;;;;10460358;28;19978;-69
2022/07/11 09:12:14;;;;;;;;;;;;;;;;;;10460214;28;19924;-69
2022/07/11 09:17:16;;;;;;;;;;;;;;;;;;10459102;28;19948;-69
2022/07/11 09:27:39;;;;;;;;;;;;;;;;;;10458942;28;19924;-69
2022/07/11 09:32:41;;;;;;;;;;;;;;;;;;10459321;28;19925;-68
2022/07/11 09:37:43;;;;;;;;;;;;;;;;;;10470392;28;19932;-69
2022/07/11 09:42:46;;;;;;;;;;;;;;;;;;10500240;28;19931;-69
2022/07/11 09:47:48;;;;;;;;;;;;;;;;;;10500005;28;19924;-69
2022/07/11 09:52:50;;;;;;;;;;;;;;;;;;10466825;28;19925;-69
2022/07/11 09:57:52;;;;;;;;;;;;;;;;;;10458322;28;19924;-69
2022/07/11 10:02:55;;;;;;;;;;;;;;;;;;10464478;28;19924;-69
2022/07/11 10:07:57;;;;;;;;;;;;;;;;;;10498924;28;19971;-69
2022/07/11 10:13:00;;;;;;;;;;;;;;;;;;10444094;28;19924;-69
2022/07/11 10:18:02;;;;;;;;;;;;;;;;;;10457579;28;19932;-68
2022/07/11 10:23:04;;;;;;;;;;;;;;;;;;10457630;28;19932;-69
2022/07/11 10:28:06;;;;;;;;;;;;;;;;;;10461149;28;19929;-69
2022/07/11 10:33:08;;;;;;;;;;;;;;;;;;10461626;28;19935;-69
2022/07/11 10:38:10;;;;;;;;;;;;;;;;;;10452565;28;19925;-69
2022/07/11 10:43:13;;;;;;;;;;;;;;;;;;10451696;28;19932;-69
2022/07/11 10:48:15;;;;;;;;;;;;;;;;;;10471239;28;19929;-69
2022/07/11 10:53:17;;;;;;;;;;;;;;;;;;10490536;28;19956;-69
2022/07/11 10:58:22;;;;;;;;;;;;;;;;;;10473769;28;19929;-70
2022/07/11 11:03:24;;;;;;;;;;;;;;;;;;10491388;28;19935;-69
2022/07/11 11:08:26;;;;;;;;;;;;;;;;;;10490538;28;19974;-69
2022/07/11 11:13:28;;;;;;;;;;;;;;;;;;10490456;28;20019;-70
2022/07/11 11:18:33;;;;;;;;;;;;;;;;;;10490901;28;19934;-70
2022/07/11 11:23:36;;;;;;;;;;;;;;;;;;10495473;28;19947;-70
2022/07/11 11:28:38;;;;;;;;;;;;;;;;;;10498567;28;19940;-70
2022/07/11 11:33:40;;;;;;;;;;;;;;;;;;10498505;28;19934;-70
2022/07/11 11:38:43;;;;;;;;;;;;;;;;;;10498029;28;19935;-71
2022/07/11 11:43:45;;;;;;;;;;;;;;;;;;10497787;28;19935;-71
2022/07/11 11:48:47;;;;;;;;;;;;;;;;;;10497226;28;20291;-71
2022/07/11 11:53:49;;;;;;;;;;;;;;;;;;10486895;28;19928;-71
2022/07/11 11:58:51;;;;;;;;;;;;;;;;;;10457995;28;19925;-71
2022/07/11 12:03:54;;;;;;;;;;;;;;;;;;10454606;28;19929;-71
2022/07/11 12:08:56;;;;;;;;;;;;;;;;;;10484351;28;19928;-72
2022/07/11 12:13:58;;;;;;;;;;;;;;;;;;10471982;28;20406;-71
2022/07/11 12:19:00;;;;;;;;;;;;;;;;;;10454928;28;19928;-71
2022/07/11 12:24:02;;;;;;;;;;;;;;;;;;10454044;28;20273;-71
2022/07/11 12:29:07;;;;;;;;;;;;;;;;;;10491737;28;19924;-72
2022/07/11 12:34:11;;;;;;;;;;;;;;;;;;10502759;28;19924;-72
2022/07/11 12:39:13;;;;;;;;;;;;;;;;;;10502119;28;19925;-72
2022/07/11 12:49:46;;;;;;;;;;;;;;;;;;10445802;28;20398;-73
2022/07/11 12:54:50;;;;;;;;;;;;;;;;;;10472941;28;19932;-72
2022/07/11 12:59:52;;;;;;;;;;;;;;;;;;10485222;28;20298;-72
2022/07/11 13:04:54;;;;;;;;;;;;;;;;;;10460014;28;19932;-72
2022/07/11 13:09:56;;;;;;;;;;;;;;;;;;10460672;28;19939;-72
2022/07/11 13:15:11;;;;;;;;;;;;;;;;;;10459355;28;19929;-72
2022/07/11 13:20:13;;;;;;;;;;;;;;;;;;10458717;28;19932;-72
2022/07/11 13:25:15;;;;;;;;;;;;;;;;;;10460686;28;19931;-72
2022/07/11 13:30:20;;;;;;;;;;;;;;;;;;10458416;28;19933;-73
2022/07/11 13:35:22;;;;;;;;;;;;;;;;;;10459224;28;19929;-72
2022/07/11 13:40:25;;;;;;;;;;;;;;;;;;10459020;28;19925;-72
2022/07/11 13:45:27;;;;;;;;;;;;;;;;;;10457564;28;20356;-72
2022/07/11 13:50:29;;;;;;;;;;;;;;;;;;10487411;28;19925;-72
2022/07/11 13:55:32;;;;;;;;;;;;;;;;;;10499803;28;19924;-72
2022/07/11 14:00:34;;;;;;;;;;;;;;;;;;10499576;28;19925;-71
2022/07/11 14:05:36;;;;;;;;;;;;;;;;;;10499605;28;19932;-71
2022/07/11 14:10:38;;;;;;;;;;;;;;;;;;10498719;28;19924;-71
2022/07/11 14:15:41;;;;;;;;;;;;;;;;;;10498533;28;19930;-72
2022/07/11 14:20:43;;;;;;;;;;;;;;;;;;10498140;28;19932;-72
2022/07/11 14:25:46;;;;;;;;;;;;;;;;;;10499052;28;19935;-71
2022/07/11 14:30:49;;;;;;;;;;;;;;;;;;10498902;28;19928;-72
2022/07/11 14:35:51;;;;;;;;;;;;;;;;;;10498168;28;20307;-71
2022/07/11 14:40:54;;;;;;;;;;;;;;;;;;10498643;28;19931;-71
2022/07/11 14:45:56;;;;;;;;;;;;;;;;;;10498635;28;19925;-72
2022/07/11 14:50:58;;;;;;;;;;;;;;;;;;10498508;28;19928;-71
2022/07/11 14:56:00;;;;;;;;;;;;;;;;;;10498916;28;19925;-71
2022/07/11 15:01:22;;;;;;;;;;;;;;;;;;10505876;28;19925;-72
2022/07/11 15:12:20;;;;;;;;;;;;;;;;;;10506526;28;19925;-72
2022/07/11 15:17:07;;;;;;;;;;;;;;;;;;10489047;28;19931;-72
2022/07/11 15:22:09;;;;;;;;;;;;;;;;;;10464430;28;19924;-72
2022/07/11 15:27:11;;;;;;;;;;;;;;;;;;10463487;28;19932;-72
2022/07/11 15:32:15;;;;;;;;;;;;;;;;;;10481281;28;20264;-69
2022/07/11 15:37:17;;;;;;;;;;;;;;;;;;10486290;28;19924;-70
2022/07/11 15:42:19;;;;;;;;;;;;;;;;;;10463099;28;20301;-68
2022/07/11 15:47:21;;;;;;;;;;;;;;;;;;10464564;28;19925;-69
2022/07/11 15:52:23;;;;;;;;;;;;;;;;;;10463348;28;19925;-68
2022/07/11 15:57:25;;;;;;;;;;;;;;;;;;10463066;28;19929;-68
2022/07/11 16:02:27;;;;;;;;;;;;;;;;;;10462956;28;19928;-68
2022/07/11 16:07:29;;;;;;;;;;;;;;;;;;10473649;28;20391;-68
2022/07/11 16:12:31;;;;;;;;;;;;;;;;;;10466213;28;19925;-69
2022/07/11 16:17:33;;;;;;;;;;;;;;;;;;10498606;28;19931;-76
2022/07/11 16:22:36;;;;;;;;;;;;;;;;;;10468463;28;19971;-67
2022/07/11 16:27:41;;;;;;;;;;;;;;;;;;10458254;28;19936;-69
2022/07/11 16:32:43;;;;;;;;;;;;;;;;;;10454881;28;19929;-70
2022/07/11 16:37:45;;;;;;;;;;;;;;;;;;10454405;28;19936;-70
2022/07/11 16:48:08;;;;;;;;;;;;;;;;;;10487175;28;20155;-70
2022/07/11 16:53:11;;;;;;;;;;;;;;;;;;10460658;28;19924;-71
2022/07/11 16:58:13;;;;;;;;;;;;;;;;;;10494448;28;19935;-70
2022/07/11 17:03:15;;;;;;;;;;;;;;;;;;10495488;28;19928;-70
2022/07/11 17:13:38;;;;;;;;;;;;;;;;;;10452434;28;19929;-70
2022/07/11 17:18:40;;;;;;;;;;;;;;;;;;10451914;28;19929;-70
2022/07/11 17:23:43;;;;;;;;;;;;;;;;;;10453550;28;19929;-70
2022/07/11 17:28:45;;;;;;;;;;;;;;;;;;10452244;28;19936;-70
2022/07/11 17:33:47;;;;;;;;;;;;;;;;;;10452432;28;19931;-70
2022/07/11 17:38:49;;;;;;;;;;;;;;;;;;10482094;28;20342;-70
2022/07/11 17:43:59;;;;;;;;;;;;;;;;;;10507259;22;19929;-68
2022/07/11 17:49:01;;;;;;;;;;;;;;;;;;10444499;28;19929;-68
2022/07/11 17:54:03;;;;;;;;;;;;;;;;;;10444419;28;19940;-68
2022/07/11 17:59:05;;;;;;;;;;;;;;;;;;10444299;28;19929;-68
2022/07/11 18:04:08;;;;;;;;;;;;;;;;;;10443642;28;20406;-68
2022/07/11 18:09:14;;;;;;;;;;;;;;;;;;10443566;28;19955;-68
2022/07/11 18:14:16;;;;;;;;;;;;;;;;;;10443877;28;19936;-68
2022/07/11 18:19:18;;;;;;;;;;;;;;;;;;10443627;28;19935;-68
2022/07/11 18:24:20;;;;;;;;;;;;;;;;;;10424967;28;20415;-68
2022/07/11 18:29:23;;;;;;;;;;;;;;;;;;10442329;28;19928;-68
2022/07/11 18:34:25;;;;;;;;;;;;;;;;;;10442493;28;19925;-68
2022/07/11 18:44:48;;;;;;;;;;;;;;;;;;10442327;28;19940;-68
2022/07/11 18:49:52;;;;;;;;;;;;;;;;;;10441914;28;20473;-68
2022/07/11 18:54:55;;;;;;;;;;;;;;;;;;10409456;28;19936;-68
2022/07/11 18:59:57;;;;;;;;;;;;;;;;;;10413755;28;20455;-68
2022/07/11 19:04:59;;;;;;;;;;;;;;;;;;10412376;28;19929;-68
2022/07/11 19:10:01;;;;;;;;;;;;;;;;;;10414168;28;19926;-68
2022/07/11 19:15:03;;;;;;;;;;;;;;;;;;10412502;28;19936;-67
2022/07/11 19:20:06;;;;;;;;;;;;;;;;;;10409408;28;19926;-68
2022/07/11 19:25:14;;;;;;;;;;;;;;;;;;10387428;28;20300;-67
2022/07/11 19:30:17;;;;;;;;;;;;;;;;;;10386339;28;20482;-67
2022/07/11 19:35:19;;;;;;;;;;;;;;;;;;10413473;28;19929;-67
2022/07/11 19:40:21;;;;;;;;;;;;;;;;;;10378377;28;19930;-67
2022/07/11 19:45:23;;;;;;;;;;;;;;;;;;10371577;28;19938;-67
2022/07/11 19:50:26;;;;;;;;;;;;;;;;;;10371931;28;19936;-67
2022/07/11 20:00:48;;;;;;;;;;;;;;;;;;10411229;28;19956;-67
2022/07/11 20:05:52;;;;;;;;;;;;;;;;;;10409018;28;20008;-67
2022/07/11 20:10:55;;;;;;;;;;;;;;;;;;10416065;28;19949;-67
2022/07/11 20:15:57;;;;;;;;;;;;;;;;;;10417144;28;19925;-67
2022/07/11 20:20:59;;;;;;;;;;;;;;;;;;10417929;28;19925;-67
2022/07/11 20:26:01;;;;;;;;;;;;;;;;;;10416820;28;19925;-67
2022/07/11 20:31:03;;;;;;;;;;;;;;;;;;10418188;28;19925;-67
2022/07/11 20:36:06;;;;;;;;;;;;;;;;;;10385532;28;20017;-67
2022/07/11 20:41:08;;;;;;;;;;;;;;;;;;10376249;28;19929;-67
2022/07/11 20:46:10;;;;;;;;;;;;;;;;;;10376042;28;19926;-67
2022/07/11 20:51:12;;;;;;;;;;;;;;;;;;10375846;28;19999;-67
2022/07/11 20:56:15;;;;;;;;;;;;;;;;;;10375796;28;20266;-67
2022/07/11 21:01:17;;;;;;;;;;;;;;;;;;10386260;28;19932;-67
2022/07/11 21:06:19;;;;;;;;;;;;;;;;;;10416290;28;20376;-68
2022/07/11 21:11:21;;;;;;;;;;;;;;;;;;10416068;28;19925;-68
2022/07/11 21:16:23;;;;;;;;;;;;;;;;;;10402534;28;20373;-66
2022/07/11 21:21:25;;;;;;;;;;;;;;;;;;10374976;28;19968;-67
2022/07/11 21:26:27;;;;;;;;;;;;;;;;;;10374918;28;19926;-67
2022/07/11 21:31:29;;;;;;;;;;;;;;;;;;10402595;28;20380;-66
2022/07/11 21:36:32;;;;;;;;;;;;;;;;;;10415759;28;19927;-67
2022/07/11 21:41:34;;;;;;;;;;;;;;;;;;10415401;28;20376;-66
2022/07/11 21:46:36;;;;;;;;;;;;;;;;;;10415149;28;19925;-67
2022/07/11 21:51:38;;;;;;;;;;;;;;;;;;10397444;28;20334;-66
2022/07/11 21:56:40;;;;;;;;;;;;;;;;;;10395506;28;20376;-66
2022/07/11 22:01:42;;;;;;;;;;;;;;;;;;10374620;28;19933;-66
2022/07/11 22:06:44;;;;;;;;;;;;;;;;;;10373877;28;19932;-67
2022/07/11 22:11:46;;;;;;;;;;;;;;;;;;10395704;28;19947;-66
2022/07/11 22:16:48;;;;;;;;;;;;;;;;;;10414335;28;20033;-66
2022/07/11 22:21:51;;;;;;;;;;;;;;;;;;10395150;28;19925;-67
2022/07/11 22:26:53;;;;;;;;;;;;;;;;;;10412741;28;19933;-66
2022/07/11 22:31:55;;;;;;;;;;;;;;;;;;10422863;28;19932;-66
2022/07/11 22:36:57;;;;;;;;;;;;;;;;;;10395934;28;20009;-66
2022/07/11 22:41:59;;;;;;;;;;;;;;;;;;10381445;28;19929;-66
2022/07/11 22:47:01;;;;;;;;;;;;;;;;;;10380450;28;19926;-66
2022/07/11 22:52:23;;;;;;;;;;;;;;;;;;10411263;28;19925;-66
2022/07/11 22:57:45;;;;;;;;;;;;;;;;;;10421017;28;20368;-66
2022/07/11 23:02:47;;;;;;;;;;;;;;;;;;10421675;28;19925;-66
2022/07/11 23:07:50;;;;;;;;;;;;;;;;;;10421456;28;19972;-66
2022/07/11 23:12:52;;;;;;;;;;;;;;;;;;10402750;28;20400;-66
2022/07/11 23:17:55;;;;;;;;;;;;;;;;;;10397585;28;20350;-66
2022/07/11 23:22:57;;;;;;;;;;;;;;;;;;10379319;28;20450;-67
2022/07/11 23:27:59;;;;;;;;;;;;;;;;;;10379205;28;19945;-66
2022/07/11 23:33:01;;;;;;;;;;;;;;;;;;10404442;28;19932;-66
2022/07/11 23:38:03;;;;;;;;;;;;;;;;;;10420248;28;19932;-66
2022/07/11 23:43:05;;;;;;;;;;;;;;;;;;10419317;28;19925;-66
2022/07/11 23:48:07;;;;;;;;;;;;;;;;;;10379358;28;19932;-67
2022/07/11 23:53:09;;;;;;;;;;;;;;;;;;10378147;28;19929;-66
2022/07/11 23:58:11;;;;;;;;;;;;;;;;;;10377953;28;19925;-66
